Garden City, KS

11:31 AM CST en Marzo 06, 2015 (GMT -0600)
N0KQX | Change Station
CLOSE
Current Station
Estación meteorológica personal
Location: Garden City, KS
Altura: 2839 ft
Estaciones meteorológicas cercanas

Alt 2839 ft 37.97 °N, 100.85 °W | Updated 11 seconds ago

Despejado
Despejado
57.5 ° F
Sensación térmica 57.5 ° F
N
3.0
Viento Variable Viento desde SO
Gusts 3.0 mph

Hoy
Alta -- | Baja -- ° F
--% Posibilidad de precipitaciones
Ayer
Alta -- | Baja -- ° F
Precip. -- pul
7:08 AM 6:41 PM
Luna llena, 99% visible
Presión 30.36 pul
Visibilidad 10.0 Millas
Nubes Despejado
Punto de rocío 28 ° F
Humedad 32%
Precipitaciones pul
Espesor de la nieve No disponible.
UV 5 de una escala de 12
Polen 4.40 de una escala de 12
Calidad del aire No disponible.
Flu Activity No disponible.
METAR KGCK 061654Z 26006KT 10SM CLR 10/M06 A3033 RMK AO2 SLP281 T01001056

More Conditions Fewer Conditions

Presión 30.36 pul
Visibilidad 10.0 Millas
Nubes Despejado
Punto de rocío 28 ° F
Humedad 32%
Precipitaciones pul
Espesor de la nieve No disponible.
UV 5 de una escala de 12
Polen 4.40 de una escala de 12
Calidad del aire No disponible.
Flu Activity No disponible.
METAR KGCK 061654Z 26006KT 10SM CLR 10/M06 A3033 RMK AO2 SLP281 T01001056

More Conditions Fewer Conditions

10-Day Weather Forecast

Almanac

Astronomía

Mar. 06, 2015 Salida Puesta
Hora real
Crepúsculo civil
Crepúsculo náutico
Crepúsculo astronómico
Luna
Horas de luz
Horas de luz
Tomorrow will be .
, % of the Moon is Illuminated

Extremos de hoy

Máximos del estado Bajos del estado

Community

WunderPhotos

Upload Photos

1,803,345 ¡fotos cargadas!

WunderBlogs® & News

Nearby

Calidad del aire

  Calidad del aire Índice AQ Contaminante
Not available.

Grosos de nieve

Estación Profundido Altura

Actividad de terremotos

Ciudad Distance Mag. Tiempo y dato
Magnitud mínima muestra es 2,5.

Temperaturas de aguas costeras

Lugar Temperatura

Estaciones meteorológicas cercanas